sensor_id;sensor_type;location;lat;lon;timestamp;pressure;altitude;pressure_sealevel;temperature;humidity
19761;BME280;10039;42.632;23.408;2023-04-08T00:02:05;95084.91;;;6.32;63.02
19761;BME280;10039;42.632;23.408;2023-04-08T00:04:31;95052.75;;;6.09;62.36
19761;BME280;10039;42.632;23.408;2023-04-08T00:06:57;95060.69;;;6.23;62.06
19761;BME280;10039;42.632;23.408;2023-04-08T00:09:22;95055.03;;;6.21;61.90
19761;BME280;10039;42.632;23.408;2023-04-08T00:11:48;95056.88;;;6.31;62.29
19761;BME280;10039;42.632;23.408;2023-04-08T00:14:16;95051.59;;;6.31;62.15
19761;BME280;10039;42.632;23.408;2023-04-08T00:16:42;95069.03;;;6.18;63.11
19761;BME280;10039;42.632;23.408;2023-04-08T00:19:08;95066.72;;;6.27;63.00
19761;BME280;10039;42.632;23.408;2023-04-08T00:21:34;95070.50;;;6.33;63.03
19761;BME280;10039;42.632;23.408;2023-04-08T00:24:00;95098.50;;;6.62;63.03
19761;BME280;10039;42.632;23.408;2023-04-08T00:26:26;95081.44;;;6.66;62.34
19761;BME280;10039;42.632;23.408;2023-04-08T00:28:52;95043.19;;;6.57;61.89
19761;BME280;10039;42.632;23.408;2023-04-08T00:31:21;95098.06;;;6.84;61.89
19761;BME280;10039;42.632;23.408;2023-04-08T00:33:48;95082.59;;;6.62;62.25
19761;BME280;10039;42.632;23.408;2023-04-08T00:36:15;95050.81;;;6.41;62.45
19761;BME280;10039;42.632;23.408;2023-04-08T00:38:41;95074.25;;;6.60;62.54
19761;BME280;10039;42.632;23.408;2023-04-08T00:41:19;95092.78;;;6.77;62.34
19761;BME280;10039;42.632;23.408;2023-04-08T00:43:46;95072.69;;;6.79;62.01
19761;BME280;10039;42.632;23.408;2023-04-08T00:46:11;95076.88;;;6.73;62.01
19761;BME280;10039;42.632;23.408;2023-04-08T00:48:38;95085.56;;;6.81;61.86
19761;BME280;10039;42.632;23.408;2023-04-08T00:51:03;95076.16;;;6.52;62.01
19761;BME280;10039;42.632;23.408;2023-04-08T00:53:29;95079.59;;;6.42;62.98
19761;BME280;10039;42.632;23.408;2023-04-08T00:55:55;95099.66;;;6.47;63.07
19761;BME280;10039;42.632;23.408;2023-04-08T00:58:21;95099.28;;;6.24;63.73
19761;BME280;10039;42.632;23.408;2023-04-08T01:00:57;95093.22;;;6.27;63.89
19761;BME280;10039;42.632;23.408;2023-04-08T01:06:48;95069.78;;;6.04;63.81
19761;BME280;10039;42.632;23.408;2023-04-08T01:09:17;95072.81;;;5.89;64.05
19761;BME280;10039;42.632;23.408;2023-04-08T01:11:45;95101.56;;;6.22;63.45
19761;BME280;10039;42.632;23.408;2023-04-08T01:14:19;95107.25;;;6.13;64.12
19761;BME280;10039;42.632;23.408;2023-04-08T01:16:45;95085.66;;;5.80;64.41
19761;BME280;10039;42.632;23.408;2023-04-08T01:19:18;95088.69;;;5.85;64.47
19761;BME280;10039;42.632;23.408;2023-04-08T01:21:47;95094.66;;;5.58;64.92
19761;BME280;10039;42.632;23.408;2023-04-08T01:24:21;95097.00;;;5.73;65.23
19761;BME280;10039;42.632;23.408;2023-04-08T01:26:48;95107.94;;;5.72;65.31
19761;BME280;10039;42.632;23.408;2023-04-08T01:29:15;95097.38;;;5.79;65.21
19761;BME280;10039;42.632;23.408;2023-04-08T01:31:41;95083.72;;;5.56;65.47
19761;BME280;10039;42.632;23.408;2023-04-08T01:34:09;95111.31;;;5.62;65.36
19761;BME280;10039;42.632;23.408;2023-04-08T01:36:36;95088.25;;;5.59;65.44
19761;BME280;10039;42.632;23.408;2023-04-08T01:39:04;95100.41;;;5.77;65.39
19761;BME280;10039;42.632;23.408;2023-04-08T01:41:32;95089.41;;;5.68;64.90
19761;BME280;10039;42.632;23.408;2023-04-08T01:43:59;95101.88;;;5.68;65.46
19761;BME280;10039;42.632;23.408;2023-04-08T01:46:26;95106.84;;;5.80;65.17
19761;BME280;10039;42.632;23.408;2023-04-08T01:48:54;95106.47;;;5.78;65.12
19761;BME280;10039;42.632;23.408;2023-04-08T01:51:21;95073.88;;;5.60;64.46
19761;BME280;10039;42.632;23.408;2023-04-08T01:53:47;95081.09;;;5.66;64.65
19761;BME280;10039;42.632;23.408;2023-04-08T01:56:13;95087.94;;;5.85;63.83
19761;BME280;10039;42.632;23.408;2023-04-08T01:58:42;95108.38;;;5.88;63.60
19761;BME280;10039;42.632;23.408;2023-04-08T02:01:12;95071.63;;;5.69;63.23
19761;BME280;10039;42.632;23.408;2023-04-08T02:03:41;95076.56;;;5.77;63.04
19761;BME280;10039;42.632;23.408;2023-04-08T02:06:08;95118.19;;;5.80;63.52
19761;BME280;10039;42.632;23.408;2023-04-08T02:08:34;95118.19;;;5.91;63.41
19761;BME280;10039;42.632;23.408;2023-04-08T02:11:03;95128.38;;;5.75;63.31
19761;BME280;10039;42.632;23.408;2023-04-08T02:13:30;95141.66;;;5.96;63.09
19761;BME280;10039;42.632;23.408;2023-04-08T02:16:15;95118.56;;;5.93;62.90
19761;BME280;10039;42.632;23.408;2023-04-08T02:18:59;95104.19;;;5.80;63.10
19761;BME280;10039;42.632;23.408;2023-04-08T02:21:38;95099.66;;;5.80;62.53
19761;BME280;10039;42.632;23.408;2023-04-08T02:24:07;95125.03;;;6.02;62.83
19761;BME280;10039;42.632;23.408;2023-04-08T02:26:35;95125.78;;;6.20;62.52
19761;BME280;10039;42.632;23.408;2023-04-08T02:29:03;95109.88;;;6.06;62.57
19761;BME280;10039;42.632;23.408;2023-04-08T02:31:31;95106.09;;;5.97;62.82
19761;BME280;10039;42.632;23.408;2023-04-08T02:33:58;95119.72;;;6.16;62.99
19761;BME280;10039;42.632;23.408;2023-04-08T02:36:24;95112.91;;;6.05;63.35
19761;BME280;10039;42.632;23.408;2023-04-08T02:38:51;95087.19;;;5.98;63.15
19761;BME280;10039;42.632;23.408;2023-04-08T02:41:17;95111.78;;;6.27;62.85
19761;BME280;10039;42.632;23.408;2023-04-08T02:43:44;95063.72;;;6.04;62.51
19761;BME280;10039;42.632;23.408;2023-04-08T02:46:10;95090.22;;;6.21;62.18
19761;BME280;10039;42.632;23.408;2023-04-08T02:48:36;95109.13;;;6.34;62.26
19761;BME280;10039;42.632;23.408;2023-04-08T02:51:02;95120.88;;;6.36;61.62
19761;BME280;10039;42.632;23.408;2023-04-08T02:53:28;95117.84;;;6.34;62.12
19761;BME280;10039;42.632;23.408;2023-04-08T02:55:54;95083.41;;;6.17;62.29
19761;BME280;10039;42.632;23.408;2023-04-08T02:58:20;95084.16;;;6.14;62.84
19761;BME280;10039;42.632;23.408;2023-04-08T03:00:46;95120.09;;;6.36;63.04
19761;BME280;10039;42.632;23.408;2023-04-08T03:03:11;95101.19;;;6.20;62.92
19761;BME280;10039;42.632;23.408;2023-04-08T03:05:37;95096.28;;;6.08;63.57
19761;BME280;10039;42.632;23.408;2023-04-08T03:08:03;95097.41;;;5.86;64.42
19761;BME280;10039;42.632;23.408;2023-04-08T03:10:31;95096.97;;;5.77;65.18
19761;BME280;10039;42.632;23.408;2023-04-08T03:12:57;95100.81;;;5.83;65.18
19761;BME280;10039;42.632;23.408;2023-04-08T03:15:23;95135.25;;;6.18;64.52
19761;BME280;10039;42.632;23.408;2023-04-08T03:17:49;95117.47;;;6.15;64.34
19761;BME280;10039;42.632;23.408;2023-04-08T03:20:16;95092.47;;;5.95;64.33
19761;BME280;10039;42.632;23.408;2023-04-08T03:22:41;95077.72;;;5.97;64.49
19761;BME280;10039;42.632;23.408;2023-04-08T03:25:08;95102.34;;;6.12;64.28
19761;BME280;10039;42.632;23.408;2023-04-08T03:27:34;95095.53;;;6.18;64.23
19761;BME280;10039;42.632;23.408;2023-04-08T03:30:00;95115.97;;;6.21;64.47
19761;BME280;10039;42.632;23.408;2023-04-08T03:32:25;95078.09;;;5.78;64.94
19761;BME280;10039;42.632;23.408;2023-04-08T03:34:51;95100.41;;;5.95;64.81
19761;BME280;10039;42.632;23.408;2023-04-08T03:37:17;95130.72;;;6.18;64.93
19761;BME280;10039;42.632;23.408;2023-04-08T03:39:43;95129.56;;;6.23;64.96
19761;BME280;10039;42.632;23.408;2023-04-08T03:42:09;95093.22;;;5.99;64.91
19761;BME280;10039;42.632;23.408;2023-04-08T03:44:35;95136.38;;;6.13;64.57
19761;BME280;10039;42.632;23.408;2023-04-08T03:47:01;95122.00;;;6.14;64.91
19761;BME280;10039;42.632;23.408;2023-04-08T03:49:27;95115.19;;;6.10;64.79
19761;BME280;10039;42.632;23.408;2023-04-08T03:51:53;95123.50;;;6.40;64.06
19761;BME280;10039;42.632;23.408;2023-04-08T03:54:19;95125.78;;;6.41;63.76
19761;BME280;10039;42.632;23.408;2023-04-08T03:56:44;95125.78;;;6.45;63.95
19761;BME280;10039;42.632;23.408;2023-04-08T03:59:10;95139.41;;;6.50;63.95
19761;BME280;10039;42.632;23.408;2023-04-08T04:01:37;95095.88;;;6.09;64.17
19761;BME280;10039;42.632;23.408;2023-04-08T04:04:03;95139.41;;;6.33;64.00
19761;BME280;10039;42.632;23.408;2023-04-08T04:06:28;95115.19;;;6.38;63.90
19761;BME280;10039;42.632;23.408;2023-04-08T04:08:54;95106.09;;;6.49;63.67
19761;BME280;10039;42.632;23.408;2023-04-08T04:11:20;95104.59;;;6.52;62.89
19761;BME280;10039;42.632;23.408;2023-04-08T04:13:47;95109.09;;;6.55;63.02
19761;BME280;10039;42.632;23.408;2023-04-08T04:16:13;95136.34;;;6.72;63.14
19761;BME280;10039;42.632;23.408;2023-04-08T04:18:39;95097.72;;;6.64;62.68
19761;BME280;10039;42.632;23.408;2023-04-08T04:21:05;95105.34;;;6.49;63.37
19761;BME280;10039;42.632;23.408;2023-04-08T04:23:34;95113.28;;;6.49;63.24
19761;BME280;10039;42.632;23.408;2023-04-08T04:26:00;95106.09;;;6.46;63.46
19761;BME280;10039;42.632;23.408;2023-04-08T04:28:26;95108.38;;;6.37;63.64
19761;BME280;10039;42.632;23.408;2023-04-08T04:30:52;95102.34;;;6.19;64.48
19761;BME280;10039;42.632;23.408;2023-04-08T04:33:18;95138.66;;;6.29;64.95
19761;BME280;10039;42.632;23.408;2023-04-08T04:35:43;95117.44;;;6.01;65.59
19761;BME280;10039;42.632;23.408;2023-04-08T04:38:09;95098.53;;;5.88;65.60
19761;BME280;10039;42.632;23.408;2023-04-08T04:40:38;95143.97;;;6.15;66.08
19761;BME280;10039;42.632;23.408;2023-04-08T04:43:03;95143.19;;;6.32;65.23
19761;BME280;10039;42.632;23.408;2023-04-08T04:45:29;95135.63;;;6.44;64.61
19761;BME280;10039;42.632;23.408;2023-04-08T04:47:55;95109.13;;;6.34;63.96
19761;BME280;10039;42.632;23.408;2023-04-08T04:50:27;95129.56;;;6.26;63.96
19761;BME280;10039;42.632;23.408;2023-04-08T04:52:53;95117.84;;;6.34;63.73
19761;BME280;10039;42.632;23.408;2023-04-08T04:55:18;95134.50;;;6.35;63.89
19761;BME280;10039;42.632;23.408;2023-04-08T04:57:45;95147.38;;;6.36;64.15
19761;BME280;10039;42.632;23.408;2023-04-08T05:00:11;95119.72;;;6.27;64.01
19761;BME280;10039;42.632;23.408;2023-04-08T05:02:36;95139.78;;;6.38;63.83
19761;BME280;10039;42.632;23.408;2023-04-08T05:05:02;95117.09;;;6.13;64.47
19761;BME280;10039;42.632;23.408;2023-04-08T05:07:29;95131.06;;;6.13;64.15
19761;BME280;10039;42.632;23.408;2023-04-08T05:09:54;95152.28;;;6.24;65.30
19761;BME280;10039;42.632;23.408;2023-04-08T05:12:20;95140.19;;;6.16;65.28
19761;BME280;10039;42.632;23.408;2023-04-08T05:14:46;95115.19;;;6.10;65.42
19761;BME280;10039;42.632;23.408;2023-04-08T05:17:12;95143.94;;;6.39;65.06
19761;BME280;10039;42.632;23.408;2023-04-08T05:19:38;95148.50;;;6.56;64.47
19761;BME280;10039;42.632;23.408;2023-04-08T05:22:04;95143.94;;;6.60;63.92
19761;BME280;10039;42.632;23.408;2023-04-08T05:24:30;95122.38;;;6.51;63.76
19761;BME280;10039;42.632;23.408;2023-04-08T05:26:56;95140.91;;;6.75;63.52
19761;BME280;10039;42.632;23.408;2023-04-08T05:29:22;95138.63;;;6.84;63.28
19761;BME280;10039;42.632;23.408;2023-04-08T05:31:48;95139.34;;;6.88;62.90
19761;BME280;10039;42.632;23.408;2023-04-08T05:34:14;95122.28;;;6.89;62.54
19761;BME280;10039;42.632;23.408;2023-04-08T05:36:43;95122.28;;;6.89;62.48
19761;BME280;10039;42.632;23.408;2023-04-08T05:42:03;95145.34;;;7.17;62.27
19761;BME280;10039;42.632;23.408;2023-04-08T05:44:28;95153.28;;;7.20;62.09
19761;BME280;10039;42.632;23.408;2023-04-08T05:46:54;95120.34;;;7.14;61.98
19761;BME280;10039;42.632;23.408;2023-04-08T05:49:22;95146.00;;;7.42;61.63
19761;BME280;10039;42.632;23.408;2023-04-08T05:51:48;95110.44;;;7.18;61.55
19761;BME280;10039;42.632;23.408;2023-04-08T05:54:14;95113.44;;;7.31;61.50
19761;BME280;10039;42.632;23.408;2023-04-08T05:56:40;95131.53;;;7.53;61.16
19761;BME280;10039;42.632;23.408;2023-04-08T05:59:06;95128.09;;;7.56;61.07
19761;BME280;10039;42.632;23.408;2023-04-08T06:01:32;95131.44;;;7.74;60.24
19761;BME280;10039;42.632;23.408;2023-04-08T06:03:58;95151.44;;;7.92;59.49
19761;BME280;10039;42.632;23.408;2023-04-08T06:06:24;95113.63;;;7.71;59.14
19761;BME280;10039;42.632;23.408;2023-04-08T06:08:50;95126.84;;;7.81;59.11
19761;BME280;10039;42.632;23.408;2023-04-08T06:11:16;95144.59;;;7.95;59.20
19761;BME280;10039;42.632;23.408;2023-04-08T06:13:42;95123.06;;;7.79;59.53
19761;BME280;10039;42.632;23.408;2023-04-08T06:16:12;95104.91;;;7.67;59.44
19761;BME280;10039;42.632;23.408;2023-04-08T06:18:39;95138.91;;;7.96;60.07
19761;BME280;10039;42.632;23.408;2023-04-08T06:21:05;95141.13;;;8.01;60.22
19761;BME280;10039;42.632;23.408;2023-04-08T06:23:31;95121.19;;;7.72;61.41
19761;BME280;10039;42.632;23.408;2023-04-08T06:25:56;95140.81;;;7.92;61.81
19761;BME280;10039;42.632;23.408;2023-04-08T06:28:23;95132.94;;;7.75;62.55
19761;BME280;10039;42.632;23.408;2023-04-08T06:30:49;95123.84;;;7.72;62.97
19761;BME280;10039;42.632;23.408;2023-04-08T06:33:14;95139.69;;;7.90;63.35
19761;BME280;10039;42.632;23.408;2023-04-08T06:35:40;95118.47;;;7.86;63.02
19761;BME280;10039;42.632;23.408;2023-04-08T06:38:06;95134.59;;;8.13;62.91
19761;BME280;10039;42.632;23.408;2023-04-08T06:40:32;95125.06;;;8.22;62.58
19761;BME280;10039;42.632;23.408;2023-04-08T06:42:58;95132.22;;;8.29;61.31
19761;BME280;10039;42.632;23.408;2023-04-08T06:45:25;95121.97;;;8.31;61.51
19761;BME280;10039;42.632;23.408;2023-04-08T06:47:51;95126.72;;;8.53;61.38
19761;BME280;10039;42.632;23.408;2023-04-08T06:50:16;95105.59;;;8.32;60.93
19761;BME280;10039;42.632;23.408;2023-04-08T06:52:42;95120.16;;;8.65;61.19
19761;BME280;10039;42.632;23.408;2023-04-08T06:55:08;95120.56;;;8.60;60.48
19761;BME280;10039;42.632;23.408;2023-04-08T06:57:34;95136.06;;;8.68;60.47
19761;BME280;10039;42.632;23.408;2023-04-08T06:59:59;95164.00;;;8.90;60.25
19761;BME280;10039;42.632;23.408;2023-04-08T07:02:26;95146.00;;;9.04;59.51
19761;BME280;10039;42.632;23.408;2023-04-08T07:04:52;95111.47;;;8.94;59.43
19761;BME280;10039;42.632;23.408;2023-04-08T07:07:18;95151.44;;;9.27;59.41
19761;BME280;10039;42.632;23.408;2023-04-08T07:09:43;95153.94;;;9.41;59.55
19761;BME280;10039;42.632;23.408;2023-04-08T07:12:11;95119.50;;;9.27;59.43
19761;BME280;10039;42.632;23.408;2023-04-08T07:14:37;95133.16;;;9.29;59.15
19761;BME280;10039;42.632;23.408;2023-04-08T07:17:02;95113.72;;;9.32;59.00
19761;BME280;10039;42.632;23.408;2023-04-08T07:19:28;95129.00;;;9.58;58.86
19761;BME280;10039;42.632;23.408;2023-04-08T07:21:54;95132.75;;;9.64;58.64
19761;BME280;10039;42.632;23.408;2023-04-08T07:24:20;95156.00;;;9.90;58.93
19761;BME280;10039;42.632;23.408;2023-04-08T07:26:46;95120.13;;;9.68;57.91
19761;BME280;10039;42.632;23.408;2023-04-08T07:29:12;95141.81;;;9.70;57.74
19761;BME280;10039;42.632;23.408;2023-04-08T07:31:38;95149.00;;;10.03;57.33
19761;BME280;10039;42.632;23.408;2023-04-08T07:34:04;95145.16;;;10.04;57.43
19761;BME280;10039;42.632;23.408;2023-04-08T07:36:30;95137.56;;;10.02;57.50
19761;BME280;10039;42.632;23.408;2023-04-08T07:38:56;95133.66;;;10.10;57.09
19761;BME280;10039;42.632;23.408;2023-04-08T07:41:22;95160.59;;;10.19;56.99
19761;BME280;10039;42.632;23.408;2023-04-08T07:43:47;95116.28;;;9.99;56.99
19761;BME280;10039;42.632;23.408;2023-04-08T07:46:13;95164.09;;;10.39;56.27
19761;BME280;10039;42.632;23.408;2023-04-08T07:48:39;95159.91;;;10.38;55.37
19761;BME280;10039;42.632;23.408;2023-04-08T07:51:06;95145.00;;;10.41;55.79
19761;BME280;10039;42.632;23.408;2023-04-08T07:53:32;95145.88;;;10.57;55.61
19761;BME280;10039;42.632;23.408;2023-04-08T07:55:59;95166.38;;;10.64;54.95
19761;BME280;10039;42.632;23.408;2023-04-08T07:58:25;95174.50;;;10.57;54.45
19761;BME280;10039;42.632;23.408;2023-04-08T08:00:52;95166.38;;;10.64;55.21
19761;BME280;10039;42.632;23.408;2023-04-08T08:03:18;95147.88;;;10.76;55.23
19761;BME280;10039;42.632;23.408;2023-04-08T08:05:43;95168.56;;;11.14;54.15
19761;BME280;10039;42.632;23.408;2023-04-08T08:08:09;95173.78;;;11.21;53.23
19761;BME280;10039;42.632;23.408;2023-04-08T08:10:38;95150.81;;;11.24;52.61
19761;BME280;10039;42.632;23.408;2023-04-08T08:13:04;95176.97;;;11.55;52.87
19761;BME280;10039;42.632;23.408;2023-04-08T08:15:31;95177.59;;;11.63;52.55
19761;BME280;10039;42.632;23.408;2023-04-08T08:17:57;95176.56;;;11.76;52.11
19761;BME280;10039;42.632;23.408;2023-04-08T08:20:23;95181.97;;;11.92;52.44
19761;BME280;10039;42.632;23.408;2023-04-08T08:22:48;95179.75;;;12.07;52.23
19761;BME280;10039;42.632;23.408;2023-04-08T08:25:14;95169.88;;;12.04;51.05
19761;BME280;10039;42.632;23.408;2023-04-08T08:27:40;95181.53;;;11.94;50.69
19761;BME280;10039;42.632;23.408;2023-04-08T08:30:07;95142.50;;;11.61;51.42
19761;BME280;10039;42.632;23.408;2023-04-08T08:32:34;95167.34;;;11.97;51.99
19761;BME280;10039;42.632;23.408;2023-04-08T08:35:00;95186.28;;;12.22;51.61
19761;BME280;10039;42.632;23.408;2023-04-08T08:37:25;95146.72;;;12.13;51.90
19761;BME280;10039;42.632;23.408;2023-04-08T08:39:51;95183.63;;;11.86;52.94
19761;BME280;10039;42.632;23.408;2023-04-08T08:42:24;95176.47;;;11.80;52.37
19761;BME280;10039;42.632;23.408;2023-04-08T08:44:50;95151.78;;;11.53;53.31
19761;BME280;10039;42.632;23.408;2023-04-08T08:47:16;95188.66;;;11.81;53.83
19761;BME280;10039;42.632;23.408;2023-04-08T08:49:44;95184.78;;;11.66;53.96
19761;BME280;10039;42.632;23.408;2023-04-08T08:52:10;95167.44;;;11.74;53.98
19761;BME280;10039;42.632;23.408;2023-04-08T08:54:36;95179.84;;;11.64;53.49
19761;BME280;10039;42.632;23.408;2023-04-08T08:57:02;95185.34;;;11.77;53.70
19761;BME280;10039;42.632;23.408;2023-04-08T08:59:28;95142.19;;;11.36;54.28
19761;BME280;10039;42.632;23.408;2023-04-08T09:01:53;95195.41;;;11.27;54.89
19761;BME280;10039;42.632;23.408;2023-04-08T09:04:20;95162.19;;;10.86;57.43
19761;BME280;10039;42.632;23.408;2023-04-08T09:06:48;95169.56;;;11.01;57.51
19761;BME280;10039;42.632;23.408;2023-04-08T09:09:16;95204.09;;;11.12;58.12
19761;BME280;10039;42.632;23.408;2023-04-08T09:11:45;95185.16;;;11.03;58.54
19761;BME280;10039;42.632;23.408;2023-04-08T09:14:19;95191.91;;;10.88;58.23
19761;BME280;10039;42.632;23.408;2023-04-08T09:16:45;95168.22;;;10.90;57.66
19761;BME280;10039;42.632;23.408;2023-04-08T09:19:11;95192.00;;;10.58;56.99
19761;BME280;10039;42.632;23.408;2023-04-08T09:21:38;95195.84;;;11.03;57.39
19761;BME280;10039;42.632;23.408;2023-04-08T09:24:06;95182.16;;;10.78;57.28
19761;BME280;10039;42.632;23.408;2023-04-08T09:26:32;95157.56;;;10.90;56.69
19761;BME280;10039;42.632;23.408;2023-04-08T09:29:02;95189.41;;;11.00;55.95
19761;BME280;10039;42.632;23.408;2023-04-08T09:31:32;95193.06;;;10.87;56.80
19761;BME280;10039;42.632;23.408;2023-04-08T09:33:59;95171.00;;;11.06;56.28
19761;BME280;10039;42.632;23.408;2023-04-08T09:36:27;95161.34;;;11.12;55.42
19761;BME280;10039;42.632;23.408;2023-04-08T09:38:54;95169.41;;;11.31;55.90
19761;BME280;10039;42.632;23.408;2023-04-08T09:41:20;95130.94;;;11.25;55.09
19761;BME280;10039;42.632;23.408;2023-04-08T09:46:15;95142.06;;;11.43;55.93
19761;BME280;10039;42.632;23.408;2023-04-08T09:51:49;95168.59;;;11.92;54.27
19761;BME280;10039;42.632;23.408;2023-04-08T09:54:20;95135.97;;;11.81;53.75
19761;BME280;10039;42.632;23.408;2023-04-08T09:56:54;95123.13;;;11.92;54.37
19761;BME280;10039;42.632;23.408;2023-04-08T09:59:26;95168.28;;;12.06;53.63
19761;BME280;10039;42.632;23.408;2023-04-08T10:01:56;95145.38;;;12.05;54.39
19761;BME280;10039;42.632;23.408;2023-04-08T10:04:26;95153.34;;;12.25;53.73
19761;BME280;10039;42.632;23.408;2023-04-08T10:06:56;95131.59;;;11.71;54.36
19761;BME280;10039;42.632;23.408;2023-04-08T10:09:23;95105.38;;;11.82;54.59
19761;BME280;10039;42.632;23.408;2023-04-08T10:11:49;95110.34;;;11.25;54.36
19761;BME280;10039;42.632;23.408;2023-04-08T10:14:15;95136.31;;;11.64;54.76
19761;BME280;10039;42.632;23.408;2023-04-08T10:16:41;95126.88;;;11.59;54.11
19761;BME280;10039;42.632;23.408;2023-04-08T10:19:39;95125.06;;;11.72;53.50
19761;BME280;10039;42.632;23.408;2023-04-08T10:27:42;95119.94;;;11.97;53.24
19761;BME280;10039;42.632;23.408;2023-04-08T10:32:52;95093.88;;;11.85;53.38
19761;BME280;10039;42.632;23.408;2023-04-08T10:35:33;95142.34;;;12.38;53.58
19761;BME280;10039;42.632;23.408;2023-04-08T10:37:59;95095.66;;;12.08;52.11
19761;BME280;10039;42.632;23.408;2023-04-08T10:40:25;95111.09;;;12.00;53.33
19761;BME280;10039;42.632;23.408;2023-04-08T10:42:54;95111.09;;;12.00;53.43
19761;BME280;10039;42.632;23.408;2023-04-08T10:45:20;95108.31;;;11.88;52.92
19761;BME280;10039;42.632;23.408;2023-04-08T10:47:49;95117.94;;;12.01;52.29
19761;BME280;10039;42.632;23.408;2023-04-08T10:50:18;95102.66;;;11.66;52.15
19761;BME280;10039;42.632;23.408;2023-04-08T10:52:52;95117.72;;;11.76;53.11
19761;BME280;10039;42.632;23.408;2023-04-08T10:55:25;95131.53;;;11.75;52.94
19761;BME280;10039;42.632;23.408;2023-04-08T10:57:52;95115.69;;;12.00;52.37
19761;BME280;10039;42.632;23.408;2023-04-08T11:00:19;95121.81;;;12.16;51.77
19761;BME280;10039;42.632;23.408;2023-04-08T11:03:00;95098.56;;;12.29;50.91
19761;BME280;10039;42.632;23.408;2023-04-08T11:05:26;95129.03;;;12.35;51.19
19761;BME280;10039;42.632;23.408;2023-04-08T11:07:51;95094.09;;;12.26;50.78
19761;BME280;10039;42.632;23.408;2023-04-08T11:10:17;95095.41;;;12.34;49.71
19761;BME280;10039;42.632;23.408;2023-04-08T11:12:43;95071.00;;;12.16;50.65
19761;BME280;10039;42.632;23.408;2023-04-08T11:15:09;95092.06;;;12.30;51.65
19761;BME280;10039;42.632;23.408;2023-04-08T11:17:35;95065.22;;;12.18;52.74
19761;BME280;10039;42.632;23.408;2023-04-08T11:20:02;95061.97;;;12.10;55.03
19761;BME280;10039;42.632;23.408;2023-04-08T11:22:31;95065.31;;;12.14;55.75
19761;BME280;10039;42.632;23.408;2023-04-08T11:24:58;95083.47;;;12.38;55.86
19761;BME280;10039;42.632;23.408;2023-04-08T11:27:25;95084.19;;;12.55;55.45
19761;BME280;10039;42.632;23.408;2023-04-08T11:29:55;95066.72;;;12.19;53.04
19761;BME280;10039;42.632;23.408;2023-04-08T11:32:23;95104.03;;;12.41;54.13
19761;BME280;10039;42.632;23.408;2023-04-08T11:34:49;95084.53;;;11.93;53.20
19761;BME280;10039;42.632;23.408;2023-04-08T11:37:15;95063.72;;;12.32;55.25
19761;BME280;10039;42.632;23.408;2023-04-08T11:39:42;95059.63;;;12.12;53.06
19761;BME280;10039;42.632;23.408;2023-04-08T11:42:08;95064.78;;;12.35;55.10
19761;BME280;10039;42.632;23.408;2023-04-08T11:44:34;95093.38;;;12.70;53.60
19761;BME280;10039;42.632;23.408;2023-04-08T11:47:00;95106.69;;;12.73;54.92
19761;BME280;10039;42.632;23.408;2023-04-08T11:49:43;95057.38;;;12.71;54.15
19761;BME280;10039;42.632;23.408;2023-04-08T11:52:09;95060.88;;;12.84;53.00
19761;BME280;10039;42.632;23.408;2023-04-08T11:54:40;95037.31;;;12.63;52.96
19761;BME280;10039;42.632;23.408;2023-04-08T11:57:06;95045.63;;;12.52;53.49
19761;BME280;10039;42.632;23.408;2023-04-08T11:59:34;95040.63;;;12.38;53.99
19761;BME280;10039;42.632;23.408;2023-04-08T12:02:01;95025.25;;;12.42;54.16
19761;BME280;10039;42.632;23.408;2023-04-08T12:04:27;95035.34;;;12.35;53.73
19761;BME280;10039;42.632;23.408;2023-04-08T12:06:54;95046.06;;;12.35;55.08
19761;BME280;10039;42.632;23.408;2023-04-08T12:09:20;95049.16;;;12.33;53.41
19761;BME280;10039;42.632;23.408;2023-04-08T12:11:49;95051.91;;;12.46;54.58
19761;BME280;10039;42.632;23.408;2023-04-08T12:14:15;95024.31;;;12.49;54.59
19761;BME280;10039;42.632;23.408;2023-04-08T12:16:47;95052.53;;;12.82;53.54
19761;BME280;10039;42.632;23.408;2023-04-08T12:19:13;95041.56;;;12.76;52.23
19761;BME280;10039;42.632;23.408;2023-04-08T12:21:38;95050.53;;;12.70;51.47
19761;BME280;10039;42.632;23.408;2023-04-08T12:24:07;95049.63;;;12.60;50.26
19761;BME280;10039;42.632;23.408;2023-04-08T12:26:33;95054.59;;;12.30;50.19
19761;BME280;10039;42.632;23.408;2023-04-08T12:28:59;95031.19;;;12.18;51.24
19761;BME280;10039;42.632;23.408;2023-04-08T12:31:32;95040.13;;;12.12;51.10
19761;BME280;10039;42.632;23.408;2023-04-08T12:34:01;95032.53;;;11.94;51.06
19761;BME280;10039;42.632;23.408;2023-04-08T12:36:27;95042.91;;;12.08;52.98
19761;BME280;10039;42.632;23.408;2023-04-08T12:38:52;95043.91;;;12.14;54.13
19761;BME280;10039;42.632;23.408;2023-04-08T12:41:26;95010.94;;;12.01;54.92
19761;BME280;10039;42.632;23.408;2023-04-08T12:44:01;95039.81;;;12.10;56.05
19761;BME280;10039;42.632;23.408;2023-04-08T12:49:42;95023.00;;;12.09;56.48
19761;BME280;10039;42.632;23.408;2023-04-08T12:52:10;95020.34;;;11.93;55.21
19761;BME280;10039;42.632;23.408;2023-04-08T12:55:11;94995.84;;;11.79;54.33
19761;BME280;10039;42.632;23.408;2023-04-08T12:57:43;95031.94;;;11.87;53.91
19761;BME280;10039;42.632;23.408;2023-04-08T13:00:15;95002.19;;;11.69;55.06
19761;BME280;10039;42.632;23.408;2023-04-08T13:02:45;95011.97;;;11.91;51.93
19761;BME280;10039;42.632;23.408;2023-04-08T13:05:13;94997.78;;;11.94;53.39
19761;BME280;10039;42.632;23.408;2023-04-08T13:07:39;95024.34;;;12.17;52.51
19761;BME280;10039;42.632;23.408;2023-04-08T13:10:08;94992.59;;;11.87;52.37
19761;BME280;10039;42.632;23.408;2023-04-08T13:12:36;95033.72;;;12.25;53.18
19761;BME280;10039;42.632;23.408;2023-04-08T13:15:07;95009.28;;;12.23;52.00
19761;BME280;10039;42.632;23.408;2023-04-08T13:17:34;95017.56;;;12.28;51.21
19761;BME280;10039;42.632;23.408;2023-04-08T13:20:00;94988.28;;;12.22;52.46